Time;durP1;ratioP1;P1;durP2;ratioP2;P2;SDS_P1;SDS_P2;PMS_P1;PMS_P2;Temp;Humidity;BMP_temperature;BMP_pressure;BME280_temperature;BME280_humidity;BME280_pressure;Samples;Min_cycle;Max_cycle;Signal;HPM_P1;HPM_P2
2021/05/26 00:00:25;;;;;;;6.47;4.85;;;11.40;58.80;;;;;;4976754;28;20473;-79
2021/05/26 00:02:51;;;;;;;5.97;5.00;;;11.30;58.70;;;;;;4976510;28;20066;-79
2021/05/26 00:05:17;;;;;;;5.38;4.20;;;11.30;58.80;;;;;;4976757;28;20063;-79
2021/05/26 00:07:43;;;;;;;5.32;4.75;;;11.20;58.60;;;;;;4974809;28;20023;-79
2021/05/26 00:10:10;;;;;;;5.88;4.70;;;11.20;58.70;;;;;;4976057;28;20055;-78
2021/05/26 00:12:36;;;;;;;4.78;3.72;;;11.20;58.70;;;;;;4976585;28;20031;-79
2021/05/26 00:15:03;;;;;;;5.03;4.53;;;11.20;58.80;;;;;;4975637;28;20051;-79
2021/05/26 00:17:29;;;;;;;4.43;4.03;;;11.20;58.80;;;;;;4976570;28;20035;-79
2021/05/26 00:19:56;;;;;;;4.65;4.15;;;11.10;58.70;;;;;;4975209;28;20043;-79
2021/05/26 00:22:22;;;;;;;4.90;4.05;;;11.10;58.70;;;;;;4976354;28;20106;-79
2021/05/26 00:24:48;;;;;;;4.60;4.20;;;11.00;58.60;;;;;;4976268;28;20035;-79
2021/05/26 00:27:13;;;;;;;4.97;4.47;;;11.00;58.70;;;;;;4976143;28;20052;-79
2021/05/26 00:29:39;;;;;;;4.90;4.28;;;11.00;58.70;;;;;;4976694;28;20023;-79
2021/05/26 00:32:05;;;;;;;5.13;4.38;;;11.00;58.70;;;;;;4976110;28;20375;-79
2021/05/26 00:34:31;;;;;;;4.18;3.78;;;10.90;58.50;;;;;;4976217;28;20039;-79
2021/05/26 00:36:57;;;;;;;4.53;4.10;;;10.90;58.60;;;;;;4976659;28;20047;-79
2021/05/26 00:39:23;;;;;;;4.95;4.40;;;10.90;58.70;;;;;;4976390;28;20019;-79
2021/05/26 00:41:49;;;;;;;4.32;3.70;;;10.80;58.60;;;;;;4975734;28;20035;-79
2021/05/26 00:44:16;;;;;;;7.63;5.20;;;10.80;58.60;;;;;;4976317;28;20019;-79
2021/05/26 00:46:43;;;;;;;4.45;3.97;;;10.80;58.70;;;;;;4976021;29;20024;-79
2021/05/26 00:49:11;;;;;;;6.25;4.60;;;10.80;58.70;;;;;;4975647;28;20039;-79
2021/05/26 00:51:37;;;;;;;5.20;4.70;;;10.70;58.50;;;;;;4958979;28;20031;-78
2021/05/26 00:54:04;;;;;;;7.07;4.60;;;10.70;58.60;;;;;;4959100;29;20108;-79
2021/05/26 00:56:32;;;;;;;4.25;3.72;;;10.70;58.60;;;;;;4976189;28;20023;-78
2021/05/26 00:59:00;;;;;;;5.50;4.03;;;10.70;58.70;;;;;;4958872;28;20038;-79
2021/05/26 01:01:26;;;;;;;6.57;4.45;;;10.70;58.70;;;;;;4975641;28;20059;-80
2021/05/26 01:03:58;;;;;;;5.13;4.13;;;10.60;58.50;;;;;;4958915;29;20027;-79
2021/05/26 01:06:24;;;;;;;4.75;4.35;;;10.60;58.60;;;;;;4958304;28;20035;-79
2021/05/26 01:08:51;;;;;;;4.72;3.78;;;10.60;58.60;;;;;;4975921;28;20049;-79
2021/05/26 01:11:19;;;;;;;4.63;4.07;;;10.60;58.70;;;;;;4958775;28;20035;-80
2021/05/26 01:13:47;;;;;;;5.72;3.70;;;10.50;58.50;;;;;;4942846;28;20031;-80
2021/05/26 01:16:16;;;;;;;4.38;3.97;;;10.50;58.50;;;;;;4975323;28;20055;-79
2021/05/26 01:18:42;;;;;;;7.75;4.13;;;10.50;58.50;;;;;;4975180;28;20031;-79
2021/05/26 01:21:16;;;;;;;6.85;3.95;;;10.50;58.60;;;;;;4959486;28;20083;-79
2021/05/26 01:23:42;;;;;;;4.82;4.30;;;10.40;58.40;;;;;;4975284;28;20043;-79
2021/05/26 01:26:09;;;;;;;4.72;3.90;;;10.40;58.40;;;;;;4958231;28;20054;-79
2021/05/26 01:28:38;;;;;;;4.50;4.10;;;10.40;58.50;;;;;;4958303;28;20023;-79
2021/05/26 01:31:08;;;;;;;4.25;3.60;;;10.40;58.50;;;;;;4946109;29;20034;-79
2021/05/26 01:33:36;;;;;;;5.45;4.00;;;10.30;58.40;;;;;;4932490;29;20046;-79
2021/05/26 01:36:10;;;;;;;4.95;4.22;;;10.30;58.40;;;;;;4932809;29;20040;-79
2021/05/26 01:38:37;;;;;;;5.13;4.30;;;10.20;58.20;;;;;;4951942;29;20027;-78
2021/05/26 01:41:03;;;;;;;5.53;3.67;;;10.20;58.30;;;;;;4965156;29;20038;-81
2021/05/26 01:43:34;;;;;;;6.60;4.30;;;10.20;58.40;;;;;;4966694;29;20503;-81
2021/05/26 01:46:01;;;;;;;4.38;3.97;;;10.10;58.20;;;;;;4941978;29;20027;-78
2021/05/26 01:48:30;;;;;;;4.35;3.85;;;10.10;58.70;;;;;;4935850;28;20042;-80
2021/05/26 01:50:57;;;;;;;5.00;4.10;;;10.10;58.30;;;;;;4937676;29;20391;-80
2021/05/26 01:53:24;;;;;;;4.60;4.05;;;10.00;58.20;;;;;;4953926;29;20035;-80
2021/05/26 01:55:51;;;;;;;7.18;4.20;;;10.00;58.20;;;;;;4954066;29;20062;-80
2021/05/26 01:58:17;;;;;;;4.32;3.92;;;10.00;58.80;;;;;;4939307;29;20087;-80
2021/05/26 02:00:46;;;;;;;5.85;4.22;;;10.00;58.30;;;;;;4941448;29;20048;-80
2021/05/26 02:03:13;;;;;;;4.30;3.90;;;10.00;58.30;;;;;;4925718;29;20106;-80
2021/05/26 02:05:39;;;;;;;5.20;3.58;;;9.90;58.10;;;;;;4941370;29;20510;-80
2021/05/26 02:08:06;;;;;;;4.90;4.20;;;9.90;58.20;;;;;;4926009;29;20931;-80
2021/05/26 02:13:18;;;;;;;5.03;3.45;;;9.90;58.20;;;;;;4935357;29;20039;-81
2021/05/26 02:15:50;;;;;;;3.72;3.30;;;9.80;58.00;;;;;;4935592;29;20058;-81
2021/05/26 02:18:17;;;;;;;3.72;3.25;;;9.80;58.10;;;;;;4934539;29;20071;-81
2021/05/26 02:20:43;;;;;;;4.18;3.78;;;9.80;58.10;;;;;;4935449;29;20060;-80
2021/05/26 02:23:10;;;;;;;4.50;3.40;;;9.70;57.90;;;;;;4954059;29;20019;-81
2021/05/26 02:25:39;;;;;;;5.22;4.00;;;9.70;58.00;;;;;;4956578;29;20027;-81
2021/05/26 02:28:05;;;;;;;3.88;3.13;;;9.70;58.60;;;;;;4956193;29;20032;-81
2021/05/26 02:30:32;;;;;;;3.85;3.45;;;9.70;58.10;;;;;;4940917;29;20100;-81
2021/05/26 02:32:58;;;;;;;4.30;3.28;;;9.60;57.90;;;;;;4956470;29;20039;-81
2021/05/26 02:35:24;;;;;;;5.20;3.58;;;9.60;57.90;;;;;;4953621;29;20637;-81
2021/05/26 02:37:50;;;;;;;3.38;3.08;;;9.60;58.00;;;;;;4953833;29;20032;-81
2021/05/26 02:40:16;;;;;;;3.53;3.22;;;9.60;58.00;;;;;;4952603;29;20028;-81
2021/05/26 02:42:43;;;;;;;3.58;3.13;;;9.50;57.90;;;;;;4936920;29;20024;-81
2021/05/26 02:45:16;;;;;;;4.10;3.63;;;9.50;57.90;;;;;;4952729;29;20023;-80
2021/05/26 02:47:42;;;;;;;4.05;3.60;;;9.50;58.00;;;;;;4936246;29;20063;-78
2021/05/26 02:50:16;;;;;;;4.03;3.50;;;9.40;57.90;;;;;;4955406;29;20059;-78
2021/05/26 02:52:45;;;;;;;6.53;3.67;;;9.40;57.90;;;;;;4953710;29;20036;-79
2021/05/26 02:55:13;;;;;;;4.93;3.47;;;9.30;57.70;;;;;;4953763;28;20236;-78
2021/05/26 02:57:47;;;;;;;5.70;3.03;;;9.40;58.00;;;;;;4937241;29;20063;-79
2021/05/26 03:00:32;;;;;;;3.92;3.05;;;9.30;57.80;;;;;;4954447;29;20051;-78
2021/05/26 03:03:15;;;;;;;4.22;3.60;;;9.30;57.80;;;;;;4937124;29;20028;-80
2021/05/26 03:05:42;;;;;;;3.95;3.28;;;9.30;57.80;;;;;;4920669;29;20040;-79
2021/05/26 03:08:10;;;;;;;5.97;3.17;;;9.20;57.70;;;;;;4953792;29;20023;-79
2021/05/26 03:10:38;;;;;;;3.63;3.30;;;9.20;57.70;;;;;;4935013;29;20035;-78
2021/05/26 03:13:24;;;;;;;4.18;3.55;;;9.20;57.70;;;;;;4936487;29;20039;-78
2021/05/26 03:15:54;;;;;;;4.10;3.45;;;9.20;57.70;;;;;;4937418;29;20059;-81
2021/05/26 03:18:21;;;;;;;4.75;3.53;;;9.10;57.50;;;;;;4937018;29;20038;-81
2021/05/26 03:20:49;;;;;;;3.90;3.42;;;9.10;57.60;;;;;;4953306;29;20078;-80
2021/05/26 03:23:35;;;;;;;4.53;3.72;;;9.10;57.60;;;;;;4935112;29;20043;-80
2021/05/26 03:26:31;;;;;;;5.18;3.55;;;9.00;57.40;;;;;;4939849;29;20039;-80
2021/05/26 03:28:58;;;;;;;3.30;3.00;;;9.00;57.40;;;;;;4951762;28;20087;-80
2021/05/26 03:31:24;;;;;;;6.80;3.63;;;9.00;57.50;;;;;;4951797;29;20080;-79
2021/05/26 03:33:50;;;;;;;5.80;3.63;;;9.00;57.50;;;;;;4934595;29;20503;-80
2021/05/26 03:36:16;;;;;;;4.78;3.28;;;8.90;57.40;;;;;;4953934;29;20052;-80
2021/05/26 03:38:42;;;;;;;4.03;3.45;;;8.90;57.40;;;;;;4937949;29;20063;-80
2021/05/26 03:41:08;;;;;;;4.95;3.83;;;8.90;57.40;;;;;;4945696;29;20032;-80
2021/05/26 03:43:35;;;;;;;3.65;3.28;;;8.90;57.50;;;;;;4928239;29;20554;-80
2021/05/26 03:46:01;;;;;;;4.38;2.85;;;8.80;57.30;;;;;;4941541;29;20019;-80
2021/05/26 03:48:30;;;;;;;5.07;3.40;;;8.80;57.40;;;;;;4921167;29;20415;-80
2021/05/26 03:50:57;;;;;;;6.03;3.42;;;8.80;57.40;;;;;;4937674;29;20039;-79
2021/05/26 03:53:23;;;;;;;3.72;3.35;;;8.80;57.40;;;;;;4920864;29;20050;-79
2021/05/26 03:55:49;;;;;;;4.60;3.58;;;8.70;57.30;;;;;;4921148;29;20399;-79
2021/05/26 03:58:31;;;;;;;4.05;3.65;;;8.70;57.30;;;;;;4937770;29;20054;-80
2021/05/26 04:01:00;;;;;;;3.97;3.58;;;8.70;57.30;;;;;;4938740;29;20119;-80
2021/05/26 04:03:26;;;;;;;4.63;2.95;;;8.70;57.40;;;;;;4937149;29;20086;-80
2021/05/26 04:05:54;;;;;;;5.03;3.83;;;8.60;57.20;;;;;;4937625;29;20058;-79
2021/05/26 04:08:22;;;;;;;4.88;3.40;;;8.60;57.20;;;;;;4920445;29;20465;-79
2021/05/26 04:10:49;;;;;;;4.00;2.88;;;8.60;57.20;;;;;;4937209;29;20138;-80
2021/05/26 04:13:51;;;;;;;4.43;3.30;;;8.60;57.30;;;;;;4858770;29;20044;-80
2021/05/26 04:16:36;;;;;;;3.28;2.97;;;8.60;57.20;;;;;;4914058;29;20067;-81
2021/05/26 04:19:20;;;;;;;;;;;8.60;57.20;;;;;;4937469;29;20488;-81
2021/05/26 04:21:49;;;;;;;4.55;3.42;;;8.50;57.00;;;;;;4936819;29;19918;-80
2021/05/26 04:24:16;;;;;;;3.20;2.90;;;8.50;56.90;;;;;;4919548;29;20040;-80
2021/05/26 04:26:42;;;;;;;3.03;2.75;;;8.50;57.00;;;;;;4919724;29;20035;-81
2021/05/26 04:29:09;;;;;;;3.60;3.30;;;8.50;57.00;;;;;;4936436;29;20213;-80
2021/05/26 04:31:39;;;;;;;3.97;3.38;;;8.50;57.10;;;;;;4919462;29;20046;-81
2021/05/26 04:34:05;;;;;;;4.25;3.60;;;8.50;57.10;;;;;;4937108;29;20570;-79
2021/05/26 04:36:31;;;;;;;4.82;3.83;;;8.40;57.00;;;;;;4936608;29;20066;-80
2021/05/26 04:38:57;;;;;;;4.53;3.42;;;8.40;57.00;;;;;;4919426;29;20107;-80
2021/05/26 04:41:23;;;;;;;3.28;2.97;;;8.40;57.00;;;;;;4936813;29;20122;-80
2021/05/26 04:43:49;;;;;;;3.78;3.40;;;8.40;57.10;;;;;;4917495;29;20593;-80
2021/05/26 04:46:15;;;;;;;3.83;3.38;;;8.40;57.10;;;;;;4936236;29;20054;-79
2021/05/26 04:48:41;;;;;;;3.75;3.45;;;8.40;57.10;;;;;;4932132;29;20063;-79
2021/05/26 04:51:07;;;;;;;3.55;3.25;;;8.40;57.10;;;;;;4932441;29;20074;-79
2021/05/26 04:53:33;;;;;;;5.55;3.30;;;8.40;57.20;;;;;;4932631;29;20436;-79
2021/05/26 04:55:59;;;;;;;3.22;2.92;;;8.40;57.10;;;;;;4933125;29;20035;-78
2021/05/26 04:58:25;;;;;;;5.40;3.35;;;8.40;57.20;;;;;;4941574;28;20042;-78
2021/05/26 05:00:51;;;;;;;3.35;2.90;;;8.40;57.20;;;;;;4952064;28;20035;-78
2021/05/26 05:03:17;;;;;;;3.67;3.38;;;8.40;57.10;;;;;;4934117;28;20436;-79
2021/05/26 05:05:43;;;;;;;3.97;3.20;;;8.40;57.10;;;;;;4912694;29;20028;-78
2021/05/26 05:08:09;;;;;;;5.20;3.10;;;8.50;57.80;;;;;;4925278;29;20114;-78
2021/05/26 05:10:35;;;;;;;4.90;3.22;;;8.50;57.30;;;;;;4950908;29;20098;-79
2021/05/26 05:13:02;;;;;;;3.47;3.17;;;8.50;57.30;;;;;;4933661;29;20035;-79
2021/05/26 05:15:28;;;;;;;4.07;3.17;;;8.50;57.30;;;;;;4950795;28;20430;-78
2021/05/26 05:17:55;;;;;;;3.75;3.33;;;8.50;57.30;;;;;;4950877;29;20384;-78
2021/05/26 05:20:21;;;;;;;3.50;3.20;;;8.50;57.20;;;;;;4951028;28;20098;-79
2021/05/26 05:22:56;;;;;;;3.75;3.40;;;8.60;57.40;;;;;;4950044;28;20039;-83
2021/05/26 05:25:23;;;;;;;4.82;3.30;;;8.60;57.50;;;;;;4950650;28;20488;-77
2021/05/26 05:27:50;;;;;;;4.13;3.72;;;8.60;57.40;;;;;;4949873;29;20035;-78
2021/05/26 05:30:16;;;;;;;5.55;3.58;;;8.60;57.40;;;;;;4950477;29;20043;-79
2021/05/26 05:32:42;;;;;;;3.60;3.25;;;8.60;57.40;;;;;;4950500;29;20550;-78
2021/05/26 05:35:09;;;;;;;3.80;3.38;;;8.70;57.60;;;;;;4933820;28;20031;-79
2021/05/26 05:37:35;;;;;;;3.60;3.30;;;8.70;57.60;;;;;;4931092;29;20034;-79
2021/05/26 05:40:02;;;;;;;3.40;3.10;;;8.70;57.50;;;;;;4931286;29;20035;-77
2021/05/26 05:42:28;;;;;;;4.00;3.47;;;8.80;57.70;;;;;;4935311;29;20038;-78
2021/05/26 05:44:54;;;;;;;3.78;3.47;;;8.90;58.00;;;;;;4950115;29;20046;-80
2021/05/26 05:47:21;;;;;;;4.10;3.58;;;9.00;58.20;;;;;;4949808;29;20749;-78
2021/05/26 05:49:47;;;;;;;4.35;3.78;;;9.10;58.40;;;;;;4949991;29;20547;-78
2021/05/26 05:52:13;;;;;;;3.67;3.22;;;9.30;58.90;;;;;;4933115;29;20125;-78
2021/05/26 05:54:40;;;;;;;6.07;3.60;;;9.40;59.00;;;;;;4932820;28;20376;-80
2021/05/26 05:57:07;;;;;;;7.25;5.70;;;9.60;59.30;;;;;;4916656;29;20550;-80
2021/05/26 05:59:33;;;;;;;6.57;5.88;;;9.70;59.50;;;;;;4949614;29;20649;-79
2021/05/26 06:02:00;;;;;;;6.22;5.63;;;9.80;59.70;;;;;;4932227;29;20050;-81
2021/05/26 06:04:27;;;;;;;8.02;7.45;;;10.00;60.00;;;;;;4931485;29;20368;-82
2021/05/26 06:06:53;;;;;;;12.65;11.18;;;10.10;60.10;;;;;;4932351;29;20130;-81
2021/05/26 06:09:21;;;;;;;16.80;15.57;;;10.20;60.20;;;;;;4916351;28;20206;-80
2021/05/26 06:11:48;;;;;;;14.25;12.88;;;10.20;60.30;;;;;;4932389;29;20039;-79
2021/05/26 06:14:17;;;;;;;12.85;11.75;;;10.30;60.70;;;;;;4932277;29;20041;-80
2021/05/26 06:16:43;;;;;;;12.68;11.68;;;10.40;60.90;;;;;;4949009;28;20037;-80
2021/05/26 06:19:28;;;;;;;11.65;10.65;;;10.50;61.00;;;;;;4935314;29;20039;-80
2021/05/26 06:22:05;;;;;;;12.25;11.25;;;10.60;61.10;;;;;;4949059;29;20043;-79
2021/05/26 06:24:32;;;;;;;11.68;10.77;;;10.70;61.20;;;;;;4949483;28;20027;-79
2021/05/26 06:26:58;;;;;;;12.95;11.40;;;10.70;61.10;;;;;;4950788;29;20083;-80
2021/05/26 06:29:24;;;;;;;10.50;9.70;;;10.70;61.10;;;;;;4933907;29;20043;-81
2021/05/26 06:31:51;;;;;;;10.85;10.02;;;10.80;61.30;;;;;;4916449;29;20037;-79
2021/05/26 06:34:17;;;;;;;11.75;10.65;;;10.90;61.80;;;;;;4913608;29;20027;-80
2021/05/26 06:36:43;;;;;;;10.70;9.90;;;11.20;62.40;;;;;;4922367;29;20035;-79
2021/05/26 06:39:09;;;;;;;10.70;9.90;;;11.50;62.90;;;;;;4932013;29;20095;-81
2021/05/26 06:41:35;;;;;;;10.88;9.88;;;11.70;63.10;;;;;;4948916;28;20039;-80
2021/05/26 06:44:02;;;;;;;10.63;9.73;;;12.00;63.40;;;;;;4948856;28;20023;-80
2021/05/26 06:46:28;;;;;;;9.23;8.52;;;12.40;63.80;;;;;;4949259;28;20082;-79
2021/05/26 06:48:54;;;;;;;8.95;8.20;;;12.80;64.20;;;;;;4948875;28;20038;-79
2021/05/26 06:51:20;;;;;;;8.90;8.20;;;13.20;64.50;;;;;;4949336;28;20031;-80
2021/05/26 06:53:46;;;;;;;9.27;8.05;;;13.50;64.60;;;;;;4949170;28;20040;-80
2021/05/26 06:56:12;;;;;;;8.07;7.47;;;13.90;64.80;;;;;;4949401;28;20063;-79
2021/05/26 06:58:39;;;;;;;8.85;7.95;;;14.30;65.10;;;;;;4948985;28;20443;-79
2021/05/26 07:01:06;;;;;;;8.55;7.80;;;14.70;65.20;;;;;;4948872;29;20046;-79
2021/05/26 07:03:32;;;;;;;8.05;7.25;;;15.00;65.30;;;;;;4931166;29;20510;-79
2021/05/26 07:05:58;;;;;;;7.50;6.75;;;15.40;65.50;;;;;;4948988;29;20118;-79
2021/05/26 07:08:24;;;;;;;7.20;6.60;;;15.80;65.60;;;;;;4949224;29;20435;-79
2021/05/26 07:10:50;;;;;;;7.05;6.38;;;16.20;65.70;;;;;;4948804;28;20039;-79
2021/05/26 07:13:17;;;;;;;6.57;5.97;;;16.60;65.80;;;;;;4948857;28;20090;-78
2021/05/26 07:15:43;;;;;;;6.90;6.20;;;17.00;65.80;;;;;;4948965;28;20075;-79
2021/05/26 07:18:09;;;;;;;5.85;5.35;;;17.30;65.50;;;;;;4952386;28;20043;-80
2021/05/26 07:20:36;;;;;;;5.95;5.35;;;17.80;65.60;;;;;;4935088;29;20538;-80
2021/05/26 07:23:02;;;;;;;5.47;5.00;;;18.20;65.50;;;;;;4952192;28;20062;-79
2021/05/26 07:25:29;;;;;;;5.20;4.78;;;18.50;65.10;;;;;;4935350;28;20027;-79
2021/05/26 07:27:55;;;;;;;6.43;5.38;;;18.90;64.90;;;;;;4952350;28;20331;-80
2021/05/26 07:30:21;;;;;;;5.82;5.20;;;19.30;64.80;;;;;;4935316;29;20069;-80
2021/05/26 07:32:50;;;;;;;4.60;4.07;;;19.60;64.90;;;;;;4952547;28;20391;-79
2021/05/26 07:35:17;;;;;;;6.25;4.40;;;20.10;64.40;;;;;;4934938;29;20031;-79
2021/05/26 07:37:43;;;;;;;4.20;3.80;;;20.40;64.00;;;;;;4951911;29;20082;-78
2021/05/26 07:40:10;;;;;;;5.88;4.28;;;20.80;63.80;;;;;;4952261;28;20102;-79
2021/05/26 07:42:36;;;;;;;4.22;3.70;;;21.10;63.40;;;;;;4952032;28;20050;-80
2021/05/26 07:45:03;;;;;;;3.75;3.38;;;21.40;63.00;;;;;;4952118;28;20387;-79
2021/05/26 07:47:29;;;;;;;5.55;4.18;;;21.80;62.90;;;;;;4951350;28;20126;-81
2021/05/26 07:49:55;;;;;;;4.22;3.17;;;22.10;62.60;;;;;;4951857;28;20473;-81
2021/05/26 07:52:22;;;;;;;3.72;3.17;;;22.50;62.40;;;;;;4951944;29;20039;-80
2021/05/26 07:54:48;;;;;;;4.95;3.33;;;22.80;62.00;;;;;;4934532;29;20479;-81
2021/05/26 07:57:15;;;;;;;3.50;3.20;;;23.10;61.70;;;;;;4934506;28;20399;-81
2021/05/26 07:59:43;;;;;;;3.05;2.75;;;23.40;61.20;;;;;;4951899;28;20035;-81
2021/05/26 08:02:11;;;;;;;3.90;2.92;;;23.80;61.10;;;;;;4951713;28;20299;-83
2021/05/26 08:04:37;;;;;;;3.13;2.83;;;24.10;60.70;;;;;;4951639;28;20417;-80
2021/05/26 08:07:03;;;;;;;2.88;2.40;;;24.40;60.40;;;;;;4951714;29;20387;-81
2021/05/26 08:09:29;;;;;;;3.40;2.60;;;24.70;59.90;;;;;;4951494;28;20123;-83
2021/05/26 08:11:55;;;;;;;3.67;2.85;;;25.00;59.50;;;;;;4951469;28;20200;-82
2021/05/26 08:14:22;;;;;;;5.32;2.85;;;25.30;58.70;;;;;;4952061;28;20039;-82
2021/05/26 08:16:50;;;;;;;3.00;2.30;;;25.60;57.90;;;;;;4951748;28;20035;-80
2021/05/26 08:19:17;;;;;;;5.50;2.78;;;26.00;57.10;;;;;;4951835;28;20038;-80
2021/05/26 08:21:43;;;;;;;3.50;2.65;;;26.30;56.00;;;;;;4951195;29;20616;-81
2021/05/26 08:24:11;;;;;;;2.97;2.03;;;26.50;55.20;;;;;;4934520;29;20027;-80
2021/05/26 08:26:38;;;;;;;2.38;1.98;;;26.80;54.40;;;;;;4933669;28;20035;-81
2021/05/26 08:29:04;;;;;;;3.10;2.17;;;27.10;53.70;;;;;;4950914;28;20062;-81
2021/05/26 08:31:32;;;;;;;3.17;1.73;;;27.40;53.00;;;;;;4933800;29;20454;-81
2021/05/26 08:33:58;;;;;;;2.28;1.95;;;27.60;52.20;;;;;;4951825;29;20106;-80
2021/05/26 08:36:24;;;;;;;1.75;1.60;;;27.70;51.80;;;;;;4934153;29;20131;-81
2021/05/26 08:38:52;;;;;;;4.60;2.20;;;27.70;51.60;;;;;;4933432;29;20043;-80
2021/05/26 08:41:21;;;;;;;3.70;2.13;;;27.80;51.10;;;;;;4951116;28;20028;-80
2021/05/26 08:43:47;;;;;;;2.65;2.03;;;28.10;50.80;;;;;;4950796;28;20043;-79
2021/05/26 08:46:13;;;;;;;3.38;1.85;;;28.30;50.30;;;;;;4950870;28;20078;-80
2021/05/26 08:48:41;;;;;;;3.00;1.85;;;28.50;49.90;;;;;;4924858;29;20090;-80
2021/05/26 08:51:07;;;;;;;3.13;1.90;;;28.50;49.50;;;;;;4933448;29;20047;-79
2021/05/26 08:53:36;;;;;;;2.42;1.80;;;28.50;49.70;;;;;;4950530;28;20479;-80
2021/05/26 08:56:03;;;;;;;2.78;1.55;;;28.50;49.50;;;;;;4950638;28;20039;-80
2021/05/26 08:58:29;;;;;;;2.42;1.85;;;28.40;49.60;;;;;;4916876;29;20027;-79
2021/05/26 09:00:56;;;;;;;3.00;1.95;;;28.10;49.90;;;;;;4931151;29;20512;-80
2021/05/26 09:03:22;;;;;;;3.47;1.60;;;27.80;50.20;;;;;;4934293;29;20031;-80
2021/05/26 09:05:54;;;;;;;2.40;1.33;;;27.40;50.80;;;;;;4951206;29;20067;-79
2021/05/26 09:08:24;;;;;;;1.95;1.40;;;27.10;51.20;;;;;;4931750;29;20483;-79
2021/05/26 09:11:02;;;;;;;2.47;1.80;;;26.90;51.70;;;;;;4914678;29;20126;-79
2021/05/26 09:13:35;;;;;;;2.85;1.42;;;26.70;52.00;;;;;;4943001;28;20070;-79
2021/05/26 09:16:06;;;;;;;2.65;1.88;;;26.70;52.40;;;;;;4951006;28;20031;-80
2021/05/26 09:18:58;;;;;;;1.70;1.45;;;26.70;52.50;;;;;;4933995;28;20063;-81
2021/05/26 09:21:44;;;;;;;2.60;1.48;;;26.90;52.40;;;;;;4951548;28;20059;-81
2021/05/26 09:24:19;;;;;;;3.97;1.77;;;27.00;52.20;;;;;;4950270;29;20031;-83
2021/05/26 09:26:48;;;;;;;2.20;1.30;;;26.90;52.10;;;;;;4933189;29;20019;-80
2021/05/26 09:29:14;;;;;;;2.08;1.67;;;26.70;52.20;;;;;;4950119;29;20498;-80
2021/05/26 09:31:40;;;;;;;2.20;1.45;;;26.40;52.40;;;;;;4950359;28;20382;-81
2021/05/26 09:34:06;;;;;;;1.65;1.42;;;26.20;52.70;;;;;;4932965;29;20034;-81
2021/05/26 09:36:32;;;;;;;4.10;1.60;;;25.90;53.00;;;;;;4950702;28;20043;-80
2021/05/26 09:39:04;;;;;;;2.67;1.60;;;25.50;53.20;;;;;;4934919;28;20027;-82
2021/05/26 09:41:37;;;;;;;1.92;1.30;;;25.20;53.60;;;;;;4930830;29;20123;-84
2021/05/26 09:44:13;;;;;;;2.00;1.55;;;24.90;53.90;;;;;;4930835;29;20027;-82
2021/05/26 09:46:41;;;;;;;2.28;1.50;;;24.60;53.90;;;;;;4940078;29;20460;-81
2021/05/26 09:49:17;;;;;;;2.45;1.48;;;24.40;54.00;;;;;;4915415;29;20126;-79
2021/05/26 09:51:46;;;;;;;1.92;1.40;;;24.20;54.00;;;;;;4931463;29;20464;-80
2021/05/26 09:54:16;;;;;;;1.63;1.25;;;24.00;54.00;;;;;;4948416;28;20023;-80
2021/05/26 09:56:45;;;;;;;2.03;1.25;;;24.00;54.20;;;;;;4951495;28;20027;-79
2021/05/26 09:59:11;;;;;;;1.65;1.42;;;23.90;54.10;;;;;;4953009;28;20034;-81
2021/05/26 10:01:38;;;;;;;3.97;1.77;;;24.00;54.40;;;;;;4949715;28;20517;-81
2021/05/26 10:04:05;;;;;;;1.88;1.40;;;24.00;54.30;;;;;;4949403;29;20173;-80
2021/05/26 10:06:31;;;;;;;1.55;1.45;;;24.00;54.40;;;;;;4950042;28;20047;-79
2021/05/26 10:09:20;;;;;;;2.95;1.45;;;24.00;54.40;;;;;;4949219;28;20038;-82
2021/05/26 10:12:02;;;;;;;2.70;1.80;;;23.90;54.30;;;;;;4949141;28;20376;-80
2021/05/26 10:14:33;;;;;;;2.50;1.63;;;23.80;54.20;;;;;;4911947;29;20040;-80
2021/05/26 10:17:02;;;;;;;2.80;1.40;;;23.80;54.40;;;;;;4911581;29;20420;-81
2021/05/26 10:19:28;;;;;;;2.83;1.30;;;23.80;54.60;;;;;;4942956;28;20031;-83
2021/05/26 10:21:54;;;;;;;1.50;1.40;;;23.80;54.60;;;;;;4949367;28;20103;-81
2021/05/26 10:24:22;;;;;;;2.25;1.30;;;23.80;54.70;;;;;;4948872;28;20039;-80
2021/05/26 10:26:59;;;;;;;2.03;1.30;;;23.80;54.80;;;;;;4949420;29;20483;-82
2021/05/26 10:29:28;;;;;;;2.38;1.42;;;23.80;54.80;;;;;;4948580;28;20110;-80
2021/05/26 10:32:02;;;;;;;2.08;1.42;;;23.90;55.00;;;;;;4949458;28;20039;-80
2021/05/26 10:34:45;;;;;;;1.85;1.48;;;23.90;55.00;;;;;;4949448;29;20027;-81
2021/05/26 10:37:13;;;;;;;2.15;1.50;;;24.00;55.20;;;;;;4949405;28;20098;-80
2021/05/26 10:39:40;;;;;;;2.60;1.73;;;24.10;55.30;;;;;;4948709;28;20031;-82
2021/05/26 10:42:28;;;;;;;2.17;1.52;;;24.10;55.10;;;;;;4949238;28;20090;-80
2021/05/26 10:45:09;;;;;;;2.05;1.48;;;24.20;55.30;;;;;;4949052;28;20043;-80
2021/05/26 10:47:38;;;;;;;3.90;1.55;;;24.30;55.40;;;;;;4948527;28;20049;-81
2021/05/26 10:50:16;;;;;;;2.85;1.55;;;24.40;55.50;;;;;;4931962;29;20039;-85
2021/05/26 10:52:57;;;;;;;3.58;1.40;;;24.50;55.60;;;;;;4931817;29;20047;-81
2021/05/26 10:55:42;;;;;;;2.17;1.38;;;24.60;55.60;;;;;;4948625;28;20118;-80
2021/05/26 10:58:12;;;;;;;1.95;1.33;;;24.70;55.50;;;;;;4949191;29;20039;-80
2021/05/26 11:00:57;;;;;;;3.55;1.70;;;24.70;55.50;;;;;;4932070;29;20027;-81
2021/05/26 11:05:53;;;;;;;1.40;1.30;;;24.70;55.50;;;;;;4931708;29;20038;-82
2021/05/26 11:08:29;;;;;;;3.60;1.52;;;24.60;55.30;;;;;;4949031;29;20058;-83
2021/05/26 11:10:55;;;;;;;3.05;1.45;;;24.50;55.20;;;;;;4948704;29;20039;-83
2021/05/26 11:13:21;;;;;;;2.13;1.45;;;24.50;55.40;;;;;;4948597;29;20032;-79
2021/05/26 11:15:48;;;;;;;1.98;1.40;;;24.30;55.10;;;;;;4948548;28;20038;-81
2021/05/26 11:20:53;;;;;;;3.42;1.67;;;24.20;55.20;;;;;;4948159;28;20051;-85
2021/05/26 11:23:19;;;;;;;3.58;1.50;;;24.20;55.30;;;;;;4948846;28;20113;-82
2021/05/26 11:25:56;;;;;;;3.42;1.83;;;24.30;55.60;;;;;;4948559;29;20094;-83
2021/05/26 11:28:29;;;;;;;7.40;2.45;;;24.50;55.30;;;;;;4949218;29;20501;-83
2021/05/26 11:31:13;;;;;;;5.18;2.47;;;24.60;53.80;;;;;;4949074;29;20705;-85
2021/05/26 11:33:54;;;;;;;6.90;3.08;;;24.50;53.10;;;;;;4948600;29;20090;-81
2021/05/26 11:36:39;;;;;;;6.80;2.90;;;24.50;53.50;;;;;;4949140;28;20031;-82
2021/05/26 11:39:29;;;;;;;7.70;3.05;;;24.60;53.70;;;;;;4931802;29;20046;-83
2021/05/26 11:42:16;;;;;;;5.20;2.53;;;24.80;53.80;;;;;;4931671;29;20039;-82
2021/05/26 11:44:45;;;;;;;5.90;2.28;;;24.90;53.80;;;;;;4949019;28;20035;-86
2021/05/26 11:47:12;;;;;;;5.05;2.42;;;24.90;54.40;;;;;;4949150;28;20047;-82
2021/05/26 11:49:40;;;;;;;4.18;2.22;;;24.90;53.90;;;;;;4934935;28;20110;-83
2021/05/26 11:52:09;;;;;;;4.78;2.03;;;25.10;54.00;;;;;;4926946;29;20036;-83
2021/05/26 11:54:51;;;;;;;4.47;2.67;;;25.20;53.90;;;;;;4948665;28;20046;-83
2021/05/26 11:57:18;;;;;;;4.55;2.20;;;25.40;53.90;;;;;;4923136;29;20031;-85
2021/05/26 11:59:52;;;;;;;3.95;2.33;;;25.70;53.80;;;;;;4913865;29;20066;-83
2021/05/26 12:02:18;;;;;;;4.75;2.65;;;26.10;53.70;;;;;;4914137;29;20035;-84
2021/05/26 12:04:45;;;;;;;4.05;2.10;;;26.40;53.50;;;;;;4944089;29;20035;-83
2021/05/26 12:07:11;;;;;;;3.20;2.22;;;26.60;53.20;;;;;;4933147;29;20023;-82
2021/05/26 12:09:37;;;;;;;4.15;2.08;;;26.70;52.90;;;;;;4932205;29;20039;-83
2021/05/26 12:12:17;;;;;;;7.18;2.00;;;26.90;52.90;;;;;;4951555;29;20051;-83
2021/05/26 12:14:46;;;;;;;5.60;2.00;;;26.90;52.80;;;;;;4934597;28;20023;-82
2021/05/26 12:17:14;;;;;;;3.42;1.75;;;27.00;52.70;;;;;;4951688;28;20121;-82
2021/05/26 12:19:41;;;;;;;3.97;1.92;;;27.00;52.70;;;;;;4951856;28;20043;-81
2021/05/26 12:22:08;;;;;;;3.35;1.83;;;27.00;52.80;;;;;;4934811;29;20042;-81
2021/05/26 12:24:54;;;;;;;2.78;1.80;;;27.00;52.80;;;;;;4952685;29;20031;-81
2021/05/26 12:27:44;;;;;;;3.80;1.73;;;27.00;52.80;;;;;;4934803;29;20061;-82
2021/05/26 12:30:26;;;;;;;4.78;2.00;;;27.10;52.80;;;;;;4913791;29;20068;-82
2021/05/26 12:32:54;;;;;;;4.70;2.17;;;27.20;52.60;;;;;;4908944;29;20506;-82
2021/05/26 12:35:27;;;;;;;5.10;2.17;;;27.40;52.70;;;;;;4952841;28;20039;-83
2021/05/26 12:37:55;;;;;;;2.53;1.50;;;27.60;52.60;;;;;;4952083;28;20039;-80
2021/05/26 12:40:27;;;;;;;2.97;1.73;;;27.80;52.50;;;;;;4935120;29;20035;-84
2021/05/26 12:42:58;;;;;;;4.70;1.70;;;28.00;52.10;;;;;;4952000;28;20126;-81
2021/05/26 12:45:27;;;;;;;3.65;1.75;;;28.00;52.00;;;;;;4952067;28;20034;-82
2021/05/26 12:47:54;;;;;;;5.57;1.90;;;28.00;52.00;;;;;;4951228;29;20094;-84
2021/05/26 12:50:32;;;;;;;3.17;1.55;;;28.10;52.00;;;;;;4934396;29;20055;-81
2021/05/26 12:53:09;;;;;;;3.45;1.48;;;28.20;51.90;;;;;;4934118;29;20046;-82
2021/05/26 12:55:37;;;;;;;3.58;1.70;;;28.30;51.80;;;;;;4934549;28;20414;-84
2021/05/26 12:58:13;;;;;;;2.08;1.27;;;28.50;51.70;;;;;;4951328;29;20027;-84
2021/05/26 13:00:39;;;;;;;2.05;1.40;;;28.50;51.50;;;;;;4951715;29;20130;-84
2021/05/26 13:03:18;;;;;;;2.22;1.25;;;28.60;51.50;;;;;;4951032;29;20418;-84
2021/05/26 13:05:48;;;;;;;4.22;1.83;;;28.80;51.40;;;;;;4953046;28;20032;-81
2021/05/26 13:08:15;;;;;;;8.55;2.35;;;28.90;51.40;;;;;;4948968;28;20502;-82